Terminal Aerodrome Forecast
Issued by NWS Louisville, KY

Current Version | Previous Version | Text Only | Print | Product List | Glossary On
Versions: 1 2 3 4 5 6 7 8 9 10 11 12 13 14 15 16 17
000
FTUS43 KLMK 272300
TAFSDF
TAF
KSDF 272326Z 2800/2906 18005KT 4SM -RA BR BKN011
     FM280300 VRB05KT 4SM -RA BR BKN008
     FM280700 33008KT 3SM -RA BR OVC008
     FM281800 33007KT P6SM OVC025=

USA.gov is the U.S. government's official web portal to all federal, state and local government web resources and services.